createdAt,value
2023-04-18T00:00:36.896Z,68.64
2023-04-18T00:03:05.006Z,66.81
2023-04-18T00:05:32.146Z,66.90
2023-04-18T00:07:59.151Z,69.24
2023-04-18T00:10:26.397Z,69.59
2023-04-18T00:12:53.440Z,69.78
2023-04-18T00:15:20.486Z,70.98
2023-04-18T00:17:48.419Z,71.02
2023-04-18T00:20:15.478Z,71.88
2023-04-18T00:22:42.744Z,70.95
2023-04-18T00:25:10.575Z,70.69
2023-04-18T00:27:38.466Z,72.57
2023-04-18T00:30:06.856Z,70.38
2023-04-18T00:32:37.627Z,71.10
2023-04-18T00:35:05.006Z,72.57
2023-04-18T00:37:32.669Z,72.33
2023-04-18T00:39:59.589Z,70.17
2023-04-18T00:42:28.957Z,69.33
2023-04-18T00:44:56.049Z,70.89
2023-04-18T00:47:23.178Z,70.73
2023-04-18T00:49:50.239Z,68.12
2023-04-18T00:52:17.423Z,66.82
2023-04-18T00:54:44.376Z,66.59
2023-04-18T00:57:12.126Z,65.35
2023-04-18T00:59:39.257Z,66.40
2023-04-18T01:02:08.053Z,64.55
2023-04-18T01:04:35.177Z,68.03
2023-04-18T01:07:02.521Z,70.17
2023-04-18T01:09:29.739Z,67.11
2023-04-18T01:11:56.882Z,67.70
2023-04-18T01:14:24.133Z,66.50
2023-04-18T01:16:51.100Z,69.47
2023-04-18T01:19:19.330Z,71.49
2023-04-18T01:21:46.377Z,70.02
2023-04-18T01:24:15.532Z,65.23
2023-04-18T01:26:44.200Z,68.14
2023-04-18T01:29:11.582Z,68.97
2023-04-18T01:31:38.906Z,71.67
2023-04-18T01:34:07.509Z,72.71
2023-04-18T01:36:35.172Z,72.72
2023-04-18T01:39:02.856Z,72.82
2023-04-18T01:41:32.569Z,71.71
2023-04-18T01:44:00.059Z,72.58
2023-04-18T01:46:27.503Z,71.78
2023-04-18T01:48:54.607Z,68.45
2023-04-18T01:51:21.729Z,65.23
2023-04-18T01:53:48.778Z,62.78
2023-04-18T01:56:15.839Z,64.54
2023-04-18T01:58:42.794Z,64.01
2023-04-18T02:01:09.816Z,62.81
2023-04-18T02:03:37.208Z,61.30
2023-04-18T02:06:04.775Z,58.09
2023-04-18T02:08:33.160Z,58.44
2023-04-18T02:11:01.426Z,59.47
2023-04-18T02:13:28.906Z,64.02
2023-04-18T02:15:57.723Z,63.69
2023-04-18T02:18:25.603Z,61.80
2023-04-18T02:20:52.749Z,61.15
2023-04-18T02:23:21.994Z,60.93
2023-04-18T02:25:49.049Z,59.18
2023-04-18T02:28:17.773Z,59.21
2023-04-18T02:30:44.797Z,57.53
2023-04-18T02:33:11.819Z,58.09
2023-04-18T02:35:38.970Z,56.94
2023-04-18T02:38:06.580Z,57.19
2023-04-18T02:40:33.611Z,58.22
2023-04-18T02:43:01.609Z,59.98
2023-04-18T02:45:29.259Z,58.16
2023-04-18T02:47:58.717Z,57.52
2023-04-18T02:50:25.799Z,57.82
2023-04-18T02:52:54.985Z,56.99
2023-04-18T02:55:26.926Z,55.94
2023-04-18T02:57:57.567Z,57.17
2023-04-18T03:00:44.871Z,57.31
2023-04-18T03:03:25.223Z,55.84
2023-04-18T03:06:12.206Z,54.95
2023-04-18T03:08:39.477Z,55.10
2023-04-18T03:11:07.768Z,55.65
2023-04-18T03:13:35.307Z,55.07
2023-04-18T03:16:02.676Z,55.20
2023-04-18T03:18:30.515Z,61.96
2023-04-18T03:20:59.308Z,59.33
2023-04-18T03:23:27.991Z,57.60
2023-04-18T03:25:54.949Z,56.76
2023-04-18T03:28:22.822Z,57.15
2023-04-18T03:30:50.867Z,59.95
2023-04-18T03:33:18.285Z,58.16
2023-04-18T03:35:47.130Z,57.03
2023-04-18T03:38:14.275Z,56.17
2023-04-18T03:40:43.185Z,56.70
2023-04-18T03:43:19.276Z,54.10
2023-04-18T03:45:47.520Z,54.00
2023-04-18T03:48:16.735Z,54.80
2023-04-18T03:50:45.517Z,55.35
2023-04-18T03:53:12.619Z,55.40
2023-04-18T03:55:41.433Z,55.21
2023-04-18T03:58:09.476Z,55.86
2023-04-18T04:00:36.618Z,55.53
2023-04-18T04:03:09.766Z,56.90
2023-04-18T04:05:36.966Z,57.15
2023-04-18T04:08:04.967Z,55.73
2023-04-18T04:10:31.923Z,54.84
2023-04-18T04:12:58.960Z,56.36
2023-04-18T04:15:26.517Z,55.51
2023-04-18T04:18:00.732Z,55.76
2023-04-18T04:20:28.080Z,56.05
2023-04-18T04:23:02.849Z,56.33
2023-04-18T04:25:33.912Z,57.24
2023-04-18T04:28:06.819Z,55.99
2023-04-18T04:30:41.744Z,55.72
2023-04-18T04:33:09.189Z,55.76
2023-04-18T04:35:36.843Z,56.40
2023-04-18T04:38:04.849Z,56.29
2023-04-18T04:40:42.958Z,56.26
2023-04-18T04:43:15.733Z,56.68
2023-04-18T04:45:45.331Z,55.97
2023-04-18T04:48:12.482Z,55.02
2023-04-18T04:50:40.553Z,55.49
2023-04-18T04:53:08.261Z,55.85
2023-04-18T04:55:35.378Z,54.67
2023-04-18T04:58:04.348Z,54.78
2023-04-18T05:00:42.573Z,56.53
2023-04-18T05:03:10.340Z,57.93
2023-04-18T05:05:37.727Z,57.62
2023-04-18T05:08:05.036Z,57.58
2023-04-18T05:10:32.612Z,62.80
2023-04-18T05:12:59.750Z,61.40
2023-04-18T05:15:26.734Z,61.84
2023-04-18T05:17:53.838Z,66.19
2023-04-18T05:20:20.890Z,66.45
2023-04-18T05:22:47.867Z,67.51
2023-04-18T05:25:14.815Z,64.18
2023-04-18T05:27:43.238Z,63.61
2023-04-18T05:30:10.590Z,67.20
2023-04-18T05:32:39.125Z,68.53
2023-04-18T05:35:07.170Z,70.46
2023-04-18T05:37:34.266Z,71.51
2023-04-18T05:40:01.339Z,69.96
2023-04-18T05:42:28.610Z,71.10
2023-04-18T05:44:55.791Z,70.74
2023-04-18T05:47:24.232Z,71.36
2023-04-18T05:49:51.549Z,72.98
2023-04-18T05:52:18.525Z,71.69
2023-04-18T05:54:45.873Z,70.36
2023-04-18T05:57:12.816Z,70.59
2023-04-18T05:59:39.833Z,69.61
2023-04-18T06:02:13.247Z,69.91
2023-04-18T06:04:41.988Z,69.01
2023-04-18T06:07:09.391Z,69.02
2023-04-18T06:09:36.423Z,70.84
2023-04-18T06:12:04.000Z,72.06
2023-04-18T06:14:31.712Z,72.37
2023-04-18T06:16:58.911Z,72.00
2023-04-18T06:19:25.929Z,72.56
2023-04-18T06:21:52.939Z,71.58
2023-04-18T06:24:20.000Z,70.36
2023-04-18T06:26:47.444Z,68.68
2023-04-18T06:29:14.730Z,70.35
2023-04-18T06:31:42.255Z,70.60
2023-04-18T06:34:09.508Z,68.62
2023-04-18T06:36:36.455Z,71.47
2023-04-18T06:39:03.895Z,70.10
2023-04-18T06:41:31.452Z,72.73
2023-04-18T06:46:28.436Z,70.81
2023-04-18T06:48:55.543Z,71.17
2023-04-18T06:51:22.530Z,71.38
2023-04-18T06:53:52.772Z,70.42
2023-04-18T06:56:22.828Z,70.02
2023-04-18T06:58:49.881Z,71.61
2023-04-18T07:01:16.950Z,70.58
2023-04-18T07:03:44.193Z,70.42
2023-04-18T07:06:11.405Z,71.48
2023-04-18T07:08:38.562Z,72.69
2023-04-18T07:11:06.479Z,72.24
2023-04-18T07:13:33.551Z,71.07
2023-04-18T07:16:01.541Z,72.33
2023-04-18T07:18:37.518Z,71.67
2023-04-18T07:21:07.670Z,71.85
2023-04-18T07:23:35.593Z,71.74
2023-04-18T07:26:03.185Z,70.89
2023-04-18T07:28:31.036Z,73.30
2023-04-18T07:30:58.400Z,71.64
2023-04-18T07:33:25.884Z,72.04
2023-04-18T07:35:53.236Z,71.20
2023-04-18T07:38:20.671Z,71.54
2023-04-18T07:40:47.656Z,70.31
2023-04-18T07:43:15.157Z,69.72
2023-04-18T07:45:43.496Z,69.80
2023-04-18T07:48:11.493Z,70.79
2023-04-18T07:50:38.597Z,70.01
2023-04-18T07:53:06.298Z,70.14
2023-04-18T07:55:33.289Z,70.68
2023-04-18T07:58:00.278Z,70.84
2023-04-18T08:00:28.964Z,68.75
2023-04-18T08:02:56.604Z,68.41
2023-04-18T08:05:23.814Z,68.90
2023-04-18T08:07:51.027Z,68.26
2023-04-18T08:10:18.470Z,67.94
2023-04-18T08:12:45.737Z,69.77
2023-04-18T08:15:13.181Z,67.50
2023-04-18T08:17:42.916Z,70.23
2023-04-18T08:20:10.505Z,68.71
2023-04-18T08:22:46.768Z,67.75
2023-04-18T08:25:17.794Z,68.56
2023-04-18T08:27:44.908Z,65.84
2023-04-18T08:30:12.549Z,67.48
2023-04-18T08:32:40.132Z,68.20
2023-04-18T08:35:07.689Z,68.60
2023-04-18T08:37:37.587Z,68.81
2023-04-18T08:40:07.282Z,68.22
2023-04-18T08:42:34.362Z,68.30
2023-04-18T08:45:01.699Z,70.25
2023-04-18T08:47:29.996Z,69.20
2023-04-18T08:49:57.556Z,70.52
2023-04-18T08:52:24.667Z,70.76
2023-04-18T08:54:52.167Z,69.83
2023-04-18T08:57:27.152Z,70.41
2023-04-18T08:59:54.673Z,70.30
2023-04-18T09:02:23.508Z,70.47
2023-04-18T09:04:53.605Z,67.99
2023-04-18T09:07:30.727Z,67.56
2023-04-18T09:09:57.977Z,66.88
2023-04-18T09:12:26.670Z,67.17
2023-04-18T09:15:09.976Z,68.06
2023-04-18T09:17:51.099Z,67.82
2023-04-18T09:20:34.617Z,66.98
2023-04-18T09:23:03.891Z,66.75
2023-04-18T09:25:54.561Z,66.93
2023-04-18T09:28:32.056Z,66.23
2023-04-18T09:31:07.985Z,67.25
2023-04-18T09:33:37.116Z,66.39
2023-04-18T09:36:20.634Z,65.35
2023-04-18T09:38:48.617Z,65.02
2023-04-18T09:41:19.921Z,64.84
2023-04-18T09:43:48.570Z,63.98
2023-04-18T09:46:17.658Z,63.31
2023-04-18T09:48:45.606Z,62.19
2023-04-18T09:51:15.089Z,64.65
2023-04-18T09:53:44.737Z,64.68
2023-04-18T09:56:27.913Z,65.05
2023-04-18T09:59:08.574Z,65.79
2023-04-18T10:01:36.180Z,65.92
2023-04-18T10:04:04.527Z,65.63
2023-04-18T10:06:33.455Z,66.34
2023-04-18T10:09:01.306Z,65.76
2023-04-18T10:11:29.382Z,65.77
2023-04-18T10:13:57.097Z,64.77
2023-04-18T10:16:24.111Z,66.07
2023-04-18T10:18:51.726Z,65.39
2023-04-18T10:21:18.685Z,63.99
2023-04-18T10:23:48.954Z,65.00
2023-04-18T10:26:16.172Z,64.68
2023-04-18T10:28:58.766Z,65.91
2023-04-18T10:31:26.962Z,64.17
2023-04-18T10:36:28.541Z,60.39
2023-04-18T10:39:00.505Z,61.36
2023-04-18T10:41:28.236Z,62.24
2023-04-18T10:44:11.406Z,60.23
2023-04-18T10:46:50.829Z,60.55
2023-04-18T10:49:27.527Z,59.68
2023-04-18T10:52:01.842Z,59.70
2023-04-18T10:54:51.256Z,61.68
2023-04-18T10:57:18.206Z,61.24
2023-04-18T10:59:50.838Z,62.38
2023-04-18T11:02:30.869Z,60.73
2023-04-18T11:04:58.409Z,59.68
2023-04-18T11:07:39.512Z,59.38
2023-04-18T11:10:07.968Z,58.37
2023-04-18T11:12:38.808Z,58.49
2023-04-18T11:15:32.356Z,58.86
2023-04-18T11:18:03.499Z,58.87
2023-04-18T11:20:39.185Z,59.37
2023-04-18T11:23:20.180Z,59.87
2023-04-18T11:25:49.509Z,60.11
2023-04-18T11:28:22.026Z,60.19
2023-04-18T11:30:49.763Z,60.57
2023-04-18T11:33:17.329Z,57.17
2023-04-18T11:35:45.361Z,57.41
2023-04-18T11:38:13.635Z,58.16
2023-04-18T11:40:47.690Z,58.25
2023-04-18T11:43:22.387Z,57.95
2023-04-18T11:45:56.490Z,58.61
2023-04-18T11:48:24.095Z,61.07
2023-04-18T11:50:51.179Z,60.71
2023-04-18T11:53:34.648Z,61.10
2023-04-18T11:56:03.843Z,61.46
2023-04-18T11:58:33.046Z,61.30
2023-04-18T12:01:02.112Z,60.88
2023-04-18T12:03:29.793Z,62.60
2023-04-18T12:06:01.392Z,61.46
2023-04-18T12:08:28.508Z,60.55
2023-04-18T12:10:55.847Z,60.07
2023-04-18T12:13:26.952Z,61.04
2023-04-18T12:15:54.642Z,60.86
2023-04-18T12:18:21.738Z,61.08
2023-04-18T12:20:54.338Z,61.29
2023-04-18T12:23:40.547Z,61.66
2023-04-18T12:26:11.053Z,60.83
2023-04-18T12:28:38.087Z,60.31
2023-04-18T12:31:08.254Z,61.93
2023-04-18T12:33:38.136Z,61.75
2023-04-18T12:36:06.119Z,61.30
2023-04-18T12:38:33.160Z,61.44
2023-04-18T12:41:00.169Z,61.98
2023-04-18T12:43:27.207Z,62.12
2023-04-18T12:45:54.140Z,64.16
2023-04-18T12:48:21.392Z,63.36
2023-04-18T12:50:48.370Z,62.24
2023-04-18T12:53:15.378Z,62.79
2023-04-18T12:55:42.407Z,63.04
2023-04-18T12:58:09.406Z,62.90
2023-04-18T13:00:36.424Z,62.78
2023-04-18T13:03:03.594Z,62.51
2023-04-18T13:05:33.431Z,61.77
2023-04-18T13:10:31.019Z,62.84
2023-04-18T13:12:57.982Z,63.21
2023-04-18T13:15:25.771Z,62.74
2023-04-18T13:17:52.908Z,62.74
2023-04-18T13:20:19.904Z,62.55
2023-04-18T13:22:46.946Z,62.83
2023-04-18T13:25:14.007Z,62.24
2023-04-18T13:27:41.886Z,62.07
2023-04-18T13:30:10.833Z,60.43
2023-04-18T13:32:39.247Z,62.42
2023-04-18T13:35:09.122Z,61.82
2023-04-18T13:37:36.931Z,62.26
2023-04-18T13:40:06.601Z,61.97
2023-04-18T13:42:34.116Z,61.20
2023-04-18T13:45:01.168Z,61.39
2023-04-18T13:47:28.418Z,61.63
2023-04-18T13:49:56.205Z,60.97
2023-04-18T13:52:23.282Z,62.71
2023-04-18T13:54:50.292Z,61.93
2023-04-18T13:57:17.224Z,60.61
2023-04-18T13:59:44.386Z,60.87
2023-04-18T14:02:11.571Z,61.61
2023-04-18T14:04:39.023Z,60.20
2023-04-18T14:07:09.267Z,59.03
2023-04-18T14:09:36.718Z,60.23
2023-04-18T14:12:03.862Z,60.29
2023-04-18T14:14:31.008Z,59.64
2023-04-18T14:16:57.970Z,60.40
2023-04-18T14:19:25.165Z,61.34
2023-04-18T14:21:52.296Z,60.63
2023-04-18T14:24:19.291Z,59.35
2023-04-18T14:26:46.388Z,58.07
2023-04-18T14:29:14.438Z,56.93
2023-04-18T14:31:41.846Z,58.28
2023-04-18T14:34:09.847Z,57.79
2023-04-18T14:36:37.108Z,59.97
2023-04-18T14:39:04.728Z,60.68
2023-04-18T14:41:31.795Z,58.51
2023-04-18T14:43:59.270Z,58.66
2023-04-18T14:46:28.411Z,57.97
2023-04-18T14:48:55.560Z,58.46
2023-04-18T14:51:23.258Z,57.03
2023-04-18T14:53:50.236Z,58.14
2023-04-18T14:56:21.033Z,58.04
2023-04-18T14:58:48.082Z,58.61
2023-04-18T15:01:15.466Z,58.32
2023-04-18T15:03:42.504Z,58.90
2023-04-18T15:06:09.622Z,57.58
2023-04-18T15:08:36.705Z,56.84
2023-04-18T15:11:07.592Z,56.02
2023-04-18T15:13:34.472Z,55.21
2023-04-18T15:16:01.689Z,57.16
2023-04-18T15:18:28.901Z,56.79
2023-04-18T15:20:57.098Z,57.63
2023-04-18T15:23:24.191Z,56.63
2023-04-18T15:25:51.117Z,57.78
2023-04-18T15:28:18.943Z,56.28
2023-04-18T15:30:46.398Z,56.22
2023-04-18T15:33:13.732Z,58.07
2023-04-18T15:35:40.962Z,57.82
2023-04-18T15:38:07.958Z,58.24
2023-04-18T15:40:36.352Z,57.54
2023-04-18T15:43:04.122Z,56.19
2023-04-18T15:45:31.338Z,56.25
2023-04-18T15:47:58.793Z,57.48
2023-04-18T15:50:26.085Z,58.23
2023-04-18T15:52:53.101Z,59.75
2023-04-18T15:55:20.105Z,58.48
2023-04-18T15:57:47.107Z,56.99
2023-04-18T16:00:17.449Z,57.89
2023-04-18T16:02:44.980Z,57.14
2023-04-18T16:05:15.477Z,57.08
2023-04-18T16:07:42.947Z,57.61
2023-04-18T16:10:10.899Z,57.67
2023-04-18T16:12:39.086Z,56.29
2023-04-18T16:15:07.256Z,57.72
2023-04-18T16:17:34.574Z,58.62
2023-04-18T16:20:01.866Z,58.38
2023-04-18T16:22:28.898Z,57.68
2023-04-18T16:24:55.873Z,56.22
2023-04-18T16:27:22.886Z,57.43
2023-04-18T16:29:49.862Z,55.60
2023-04-18T16:32:16.849Z,59.01
2023-04-18T16:34:43.776Z,60.41
2023-04-18T16:37:11.289Z,59.95
2023-04-18T16:39:38.270Z,59.51
2023-04-18T16:42:05.841Z,59.78
2023-04-18T16:44:33.343Z,59.10
2023-04-18T16:47:00.474Z,59.85
2023-04-18T16:49:28.608Z,60.21
2023-04-18T16:51:55.846Z,60.21
2023-04-18T16:54:22.888Z,59.36
2023-04-18T16:56:49.988Z,59.42
2023-04-18T16:59:17.053Z,58.99
2023-04-18T17:01:44.232Z,59.66
2023-04-18T17:04:11.343Z,59.52
2023-04-18T17:06:38.415Z,59.33
2023-04-18T17:09:06.409Z,60.66
2023-04-18T17:11:39.796Z,61.69
2023-04-18T17:14:08.164Z,61.51
2023-04-18T17:16:37.760Z,62.14
2023-04-18T17:19:05.362Z,61.58
2023-04-18T17:21:33.063Z,60.83
2023-04-18T17:24:03.552Z,61.97
2023-04-18T17:26:31.008Z,61.50
2023-04-18T17:28:58.045Z,62.50
2023-04-18T17:31:25.147Z,65.00
2023-04-18T17:33:53.388Z,64.80
2023-04-18T17:36:20.681Z,65.24
2023-04-18T17:38:50.468Z,64.83
2023-04-18T17:41:18.525Z,63.84
2023-04-18T17:43:46.025Z,63.90
2023-04-18T17:46:13.668Z,64.55
2023-04-18T17:48:41.308Z,65.19
2023-04-18T17:51:08.407Z,64.70
2023-04-18T17:53:35.436Z,64.05
2023-04-18T17:56:03.827Z,65.06
2023-04-18T17:58:31.278Z,63.96
2023-04-18T18:00:58.485Z,63.05
2023-04-18T18:03:25.729Z,62.33
2023-04-18T18:05:54.925Z,63.78
2023-04-18T18:08:22.786Z,64.70
2023-04-18T18:10:50.120Z,64.39
2023-04-18T18:13:17.283Z,64.48
2023-04-18T18:15:44.290Z,66.46
2023-04-18T18:18:11.555Z,66.28
2023-04-18T18:20:40.944Z,65.42
2023-04-18T18:23:08.959Z,65.40
2023-04-18T18:25:37.726Z,65.14
2023-04-18T18:28:04.911Z,65.46
2023-04-18T18:30:32.142Z,63.76
2023-04-18T18:32:59.483Z,65.14
2023-04-18T18:35:26.711Z,65.58
2023-04-18T18:37:54.022Z,66.39
2023-04-18T18:40:21.367Z,67.98
2023-04-18T18:42:53.842Z,67.97
2023-04-18T18:45:21.500Z,69.70
2023-04-18T18:47:49.324Z,68.68
2023-04-18T18:50:16.630Z,68.18
2023-04-18T18:52:44.827Z,69.41
2023-04-18T18:55:12.156Z,67.25
2023-04-18T18:57:39.656Z,68.20
2023-04-18T19:00:11.184Z,69.38
2023-04-18T19:02:39.346Z,67.99
2023-04-18T19:05:09.045Z,67.71
2023-04-18T19:07:36.360Z,67.14
2023-04-18T19:10:04.726Z,66.76
2023-04-18T19:12:32.489Z,65.46
2023-04-18T19:15:00.690Z,64.46
2023-04-18T19:17:28.794Z,64.72
2023-04-18T19:19:58.240Z,66.66
2023-04-18T19:22:26.076Z,64.26
2023-04-18T19:24:53.510Z,66.08
2023-04-18T19:27:20.786Z,66.59
2023-04-18T19:29:49.007Z,66.72
2023-04-18T19:32:16.394Z,67.11
2023-04-18T19:34:44.057Z,65.06
2023-04-18T19:37:11.768Z,64.94
2023-04-18T19:39:38.976Z,65.15
2023-04-18T19:42:06.425Z,65.20
2023-04-18T19:44:33.735Z,65.33
2023-04-18T19:47:01.389Z,66.20
2023-04-18T19:49:28.650Z,66.57
2023-04-18T19:51:55.950Z,65.68
2023-04-18T19:54:23.141Z,66.77
2023-04-18T19:56:50.448Z,67.25
2023-04-18T19:59:17.934Z,68.43
2023-04-18T20:01:45.187Z,67.77
2023-04-18T20:04:12.489Z,67.46
2023-04-18T20:06:39.650Z,66.11
2023-04-18T20:09:08.635Z,66.22
2023-04-18T20:11:35.716Z,66.45
2023-04-18T20:14:03.294Z,67.66
2023-04-18T20:16:30.548Z,68.21
2023-04-18T20:18:57.610Z,68.01
2023-04-18T20:21:24.720Z,68.04
2023-04-18T20:23:51.865Z,67.90
2023-04-18T20:26:19.441Z,67.35
2023-04-18T20:28:46.559Z,67.15
2023-04-18T20:31:13.727Z,67.10
2023-04-18T20:33:41.345Z,66.69
2023-04-18T20:36:08.513Z,66.49
2023-04-18T20:38:37.038Z,66.86
2023-04-18T20:41:04.294Z,66.01
2023-04-18T20:43:37.303Z,67.61
2023-04-18T20:46:04.512Z,68.38
2023-04-18T20:48:31.561Z,68.30
2023-04-18T20:50:58.524Z,66.83
2023-04-18T20:53:27.116Z,67.54
2023-04-18T20:55:54.309Z,66.31
2023-04-18T20:58:21.328Z,68.36
2023-04-18T21:00:49.016Z,66.54
2023-04-18T21:03:16.432Z,68.95
2023-04-18T21:05:43.906Z,68.86
2023-04-18T21:08:13.907Z,68.38
2023-04-18T21:10:40.964Z,68.38
2023-04-18T21:13:09.293Z,68.84
2023-04-18T21:15:36.462Z,68.67
2023-04-18T21:18:03.636Z,69.02
2023-04-18T21:20:30.594Z,69.97
2023-04-18T21:22:57.576Z,69.12
2023-04-18T21:25:24.548Z,68.39
2023-04-18T21:27:51.589Z,68.88
2023-04-18T21:30:18.567Z,68.45
2023-04-18T21:32:46.091Z,68.92
2023-04-18T21:35:13.287Z,68.64
2023-04-18T21:37:40.370Z,68.09
2023-04-18T21:40:08.069Z,69.05
2023-04-18T21:42:35.677Z,68.81
2023-04-18T21:45:02.817Z,69.54
2023-04-18T21:47:30.202Z,68.92
2023-04-18T21:49:57.254Z,68.70
2023-04-18T21:52:24.213Z,69.57
2023-04-18T21:54:51.389Z,69.86
2023-04-18T21:57:18.437Z,69.23
2023-04-18T21:59:45.420Z,67.71
2023-04-18T22:02:12.634Z,67.92
2023-04-18T22:04:42.592Z,68.76
2023-04-18T22:07:10.043Z,67.83
2023-04-18T22:09:37.173Z,67.46
2023-04-18T22:12:04.614Z,67.50
2023-04-18T22:14:32.312Z,67.60
2023-04-18T22:17:03.293Z,68.49
2023-04-18T22:19:31.326Z,68.61
2023-04-18T22:21:58.404Z,66.54
2023-04-18T22:24:26.053Z,66.29
2023-04-18T22:26:53.232Z,66.23
2023-04-18T22:29:20.208Z,67.17
2023-04-18T22:31:47.366Z,66.54
2023-04-18T22:34:14.726Z,65.91
2023-04-18T22:36:42.896Z,66.57
2023-04-18T22:39:09.970Z,66.36
2023-04-18T22:41:37.166Z,65.67
2023-04-18T22:44:04.830Z,68.14
2023-04-18T22:46:33.079Z,68.38
2023-04-18T22:49:00.654Z,67.47
2023-04-18T22:51:28.950Z,65.75
2023-04-18T22:53:56.392Z,65.44
2023-04-18T22:56:23.493Z,65.25
2023-04-18T22:58:50.591Z,65.62
2023-04-18T23:01:17.683Z,64.88
2023-04-18T23:03:44.983Z,64.50
2023-04-18T23:06:12.128Z,64.53
2023-04-18T23:08:39.088Z,62.79
2023-04-18T23:11:06.122Z,64.80
2023-04-18T23:13:33.136Z,63.63
2023-04-18T23:16:00.318Z,64.63
2023-04-18T23:18:29.961Z,65.38
2023-04-18T23:20:56.957Z,66.67
2023-04-18T23:23:24.111Z,67.95
2023-04-18T23:25:51.547Z,66.72
2023-04-18T23:28:18.622Z,65.27
2023-04-18T23:30:45.734Z,66.07
2023-04-18T23:33:12.688Z,66.29
2023-04-18T23:35:39.689Z,63.86
2023-04-18T23:38:06.684Z,64.52
2023-04-18T23:40:33.925Z,63.95
2023-04-18T23:43:01.626Z,65.17
2023-04-18T23:45:31.416Z,66.96
2023-04-18T23:47:58.811Z,67.00
2023-04-18T23:50:25.871Z,67.82
2023-04-18T23:52:52.846Z,66.69
2023-04-18T23:55:19.874Z,68.13
2023-04-18T23:57:46.907Z,66.73
